createdAt,value
2022-08-30T00:00:39.000Z,55.2
2022-08-30T00:01:49.000Z,55.2
2022-08-30T00:02:59.000Z,55.2
2022-08-30T00:04:09.000Z,55.2
2022-08-30T00:05:19.000Z,55.3
2022-08-30T00:06:30.000Z,55.3
2022-08-30T00:07:39.000Z,55.3
2022-08-30T00:08:49.000Z,55.3
2022-08-30T00:09:59.000Z,55.3
2022-08-30T00:11:09.000Z,55.3
2022-08-30T00:12:19.000Z,55.4
2022-08-30T00:13:29.000Z,55.4
2022-08-30T00:14:39.000Z,55.4
2022-08-30T00:15:49.000Z,55.4
2022-08-30T00:16:58.000Z,55.4
2022-08-30T00:18:08.000Z,55.5
2022-08-30T00:19:17.000Z,55.5
2022-08-30T00:20:26.000Z,55.5
2022-08-30T00:21:36.000Z,55.5
2022-08-30T00:22:46.000Z,55.6
2022-08-30T00:23:56.000Z,55.5
2022-08-30T00:25:07.000Z,55.6
2022-08-30T00:26:17.000Z,55.6
2022-08-30T00:27:27.000Z,55.6
2022-08-30T00:28:37.000Z,55.6
2022-08-30T00:29:47.000Z,55.6
2022-08-30T00:30:57.000Z,55.6
2022-08-30T00:32:07.000Z,55.6
2022-08-30T00:33:17.000Z,55.6
2022-08-30T00:34:27.000Z,55.6
2022-08-30T00:35:37.000Z,55.6
2022-08-30T00:36:47.000Z,55.6
2022-08-30T00:37:57.000Z,55.6
2022-08-30T00:39:07.000Z,55.8
2022-08-30T00:40:17.000Z,55.8
2022-08-30T00:41:27.000Z,55.8
2022-08-30T00:42:37.000Z,55.8
2022-08-30T00:43:46.000Z,55.8
2022-08-30T00:44:56.000Z,55.8
2022-08-30T00:46:05.000Z,55.8
2022-08-30T00:47:14.000Z,55.9
2022-08-30T00:48:24.000Z,55.9
2022-08-30T00:49:34.000Z,55.9
2022-08-30T00:50:44.000Z,55.9
2022-08-30T00:51:54.000Z,55.9
2022-08-30T00:53:04.000Z,55.9
2022-08-30T00:54:15.000Z,55.9
2022-08-30T00:55:25.000Z,55.9
2022-08-30T00:56:34.000Z,55.9
2022-08-30T00:57:44.000Z,55.9
2022-08-30T00:58:54.000Z,56
2022-08-30T01:00:04.000Z,56
2022-08-30T01:01:14.000Z,56
2022-08-30T01:02:24.000Z,56
2022-08-30T01:03:34.000Z,56
2022-08-30T01:04:45.000Z,56
2022-08-30T01:05:55.000Z,56
2022-08-30T01:07:05.000Z,56
2022-08-30T01:08:15.000Z,56.1
2022-08-30T01:09:25.000Z,56.1
2022-08-30T01:10:34.000Z,56
2022-08-30T01:11:43.000Z,56.1
2022-08-30T01:12:52.000Z,56.1
2022-08-30T01:14:02.000Z,56.1
2022-08-30T01:15:12.000Z,56.1
2022-08-30T01:16:22.000Z,56.1
2022-08-30T01:17:32.000Z,56.2
2022-08-30T01:21:02.000Z,56.1
2022-08-30T01:22:12.000Z,56.1
2022-08-30T01:23:23.000Z,56.2
2022-08-30T01:24:33.000Z,56.2
2022-08-30T01:25:43.000Z,56.2
2022-08-30T01:26:53.000Z,56.1
2022-08-30T01:28:02.000Z,56.1
2022-08-30T01:29:11.000Z,56.2
2022-08-30T01:30:21.000Z,56.2
2022-08-30T01:31:31.000Z,56.2
2022-08-30T01:32:42.000Z,56.2
2022-08-30T01:35:02.000Z,56.2
2022-08-30T01:36:12.000Z,56.2
2022-08-30T01:38:32.000Z,56.2
2022-08-30T01:39:42.000Z,56.2
2022-08-30T01:40:52.000Z,56.2
2022-08-30T01:42:02.000Z,56.2
2022-08-30T01:43:12.000Z,56.2
2022-08-30T01:44:21.000Z,56.2
2022-08-30T01:45:31.000Z,56.2
2022-08-30T01:46:41.000Z,56.2
2022-08-30T01:47:51.000Z,56.2
2022-08-30T01:49:01.000Z,56.2
2022-08-30T01:50:11.000Z,56.2
2022-08-30T01:51:21.000Z,56.2
2022-08-30T01:52:32.000Z,56.2
2022-08-30T01:53:42.000Z,56.2
2022-08-30T01:54:52.000Z,56.2
2022-08-30T01:56:01.000Z,56.2
2022-08-30T01:57:10.000Z,56.2
2022-08-30T01:58:20.000Z,56.2
2022-08-30T01:59:30.000Z,56.1
2022-08-30T02:00:40.000Z,56.1
2022-08-30T02:01:50.000Z,56.1
2022-08-30T02:03:01.000Z,56.1
2022-08-30T02:04:11.000Z,56.1
2022-08-30T02:05:21.000Z,56.1
2022-08-30T02:06:31.000Z,56.1
2022-08-30T02:07:41.000Z,56.1
2022-08-30T02:08:50.000Z,56.1
2022-08-30T02:09:59.000Z,56.1
2022-08-30T02:11:09.959Z,56.2
2022-08-30T02:12:20.000Z,56.1
2022-08-30T02:13:30.000Z,56.1
2022-08-30T02:14:40.000Z,56.1
2022-08-30T02:15:50.000Z,56.1
2022-08-30T02:17:00.000Z,56.1
2022-08-30T02:18:10.000Z,56.1
2022-08-30T02:19:20.000Z,56.1
2022-08-30T02:20:30.000Z,56.1
2022-08-30T02:21:41.000Z,56.1
2022-08-30T02:22:51.000Z,56.1
2022-08-30T02:24:01.000Z,56.1
2022-08-30T02:25:10.000Z,56.1
2022-08-30T02:26:20.000Z,56.1
2022-08-30T02:27:30.000Z,56.1
2022-08-30T02:28:40.000Z,56.1
2022-08-30T02:29:50.000Z,56.1
2022-08-30T02:31:00.000Z,56.1
2022-08-30T02:32:11.000Z,56.1
2022-08-30T02:33:20.000Z,56.1
2022-08-30T02:34:29.000Z,56.1
2022-08-30T02:35:38.000Z,56.1
2022-08-30T02:36:48.000Z,56.1
2022-08-30T02:37:57.000Z,56.1
2022-08-30T02:39:07.000Z,56.1
2022-08-30T02:40:17.000Z,56.1
2022-08-30T02:41:28.000Z,56.1
2022-08-30T02:42:38.000Z,56.1
2022-08-30T02:43:48.000Z,56.1
2022-08-30T02:44:58.000Z,56.1
2022-08-30T02:46:08.000Z,56.1
2022-08-30T02:47:18.000Z,56.1
2022-08-30T02:48:28.000Z,56.1
2022-08-30T02:49:38.000Z,56.1
2022-08-30T02:50:49.000Z,56.1
2022-08-30T02:51:59.000Z,56.1
2022-08-30T02:53:08.000Z,56.1
2022-08-30T02:54:18.000Z,56.1
2022-08-30T02:55:28.000Z,56.1
2022-08-30T02:56:38.000Z,56.1
2022-08-30T02:57:48.000Z,56.1
2022-08-30T02:58:58.000Z,56.1
2022-08-30T03:00:07.000Z,56
2022-08-30T03:01:17.000Z,56
2022-08-30T03:02:27.000Z,56
2022-08-30T03:03:36.000Z,56
2022-08-30T03:04:45.000Z,55.9
2022-08-30T03:05:55.000Z,55.9
2022-08-30T03:07:05.000Z,55.9
2022-08-30T03:08:15.000Z,55.9
2022-08-30T03:09:25.000Z,55.8
2022-08-30T03:10:36.000Z,55.8
2022-08-30T03:11:46.000Z,55.8
2022-08-30T03:12:56.000Z,55.8
2022-08-30T03:14:06.000Z,55.8
2022-08-30T03:15:16.000Z,55.7
2022-08-30T03:16:26.000Z,55.7
2022-08-30T03:17:36.000Z,55.7
2022-08-30T03:18:46.000Z,55.7
2022-08-30T03:19:56.000Z,55.6
2022-08-30T03:21:06.000Z,55.6
2022-08-30T03:22:16.000Z,55.6
2022-08-30T03:23:26.000Z,55.6
2022-08-30T03:24:36.000Z,55.6
2022-08-30T03:25:46.000Z,55.6
2022-08-30T03:26:56.000Z,55.6
2022-08-30T03:28:05.000Z,55.5
2022-08-30T03:29:14.000Z,55.5
2022-08-30T03:30:25.000Z,55.5
2022-08-30T03:31:34.000Z,55.5
2022-08-30T03:32:43.000Z,55.5
2022-08-30T03:33:53.000Z,55.5
2022-08-30T03:35:03.000Z,55.5
2022-08-30T03:36:13.000Z,55.5
2022-08-30T03:37:23.000Z,55.4
2022-08-30T03:38:33.000Z,55.4
2022-08-30T03:40:54.000Z,55.4
2022-08-30T03:42:04.000Z,55.4
2022-08-30T03:43:14.000Z,55.4
2022-08-30T03:44:24.000Z,55.4
2022-08-30T03:45:34.000Z,55.4
2022-08-30T03:46:44.000Z,55.3
2022-08-30T03:47:53.000Z,55.3
2022-08-30T03:49:04.000Z,55.3
2022-08-30T03:50:14.000Z,55.3
2022-08-30T03:51:24.000Z,55.3
2022-08-30T03:52:34.000Z,55.3
2022-08-30T03:53:44.000Z,55.3
2022-08-30T03:54:54.000Z,55.3
2022-08-30T03:56:04.000Z,55.3
2022-08-30T03:57:13.000Z,55.3
2022-08-30T03:58:22.000Z,55.2
2022-08-30T03:59:32.000Z,55.2
2022-08-30T04:00:41.000Z,55.2
2022-08-30T04:01:51.000Z,55.2
2022-08-30T04:03:01.000Z,55.2
2022-08-30T04:04:11.000Z,55.2
2022-08-30T04:05:21.000Z,55.2
2022-08-30T04:06:31.000Z,55.2
2022-08-30T04:07:41.000Z,55.2
2022-08-30T04:08:52.000Z,55.2
2022-08-30T04:10:02.000Z,55.2
2022-08-30T04:11:12.000Z,55.2
2022-08-30T04:12:22.000Z,55.1
2022-08-30T04:13:32.000Z,55.1
2022-08-30T04:14:42.000Z,55.1
2022-08-30T04:15:51.000Z,55.1
2022-08-30T04:17:01.000Z,55.1
2022-08-30T04:18:12.000Z,55.1
2022-08-30T04:19:22.000Z,55.1
2022-08-30T04:20:32.000Z,55.1
2022-08-30T04:21:42.000Z,55.1
2022-08-30T04:22:52.000Z,55.1
2022-08-30T04:24:01.000Z,55.1
2022-08-30T04:25:10.000Z,55.1
2022-08-30T04:26:19.000Z,55.1
2022-08-30T04:27:29.000Z,55.1
2022-08-30T04:28:39.000Z,55.1
2022-08-30T04:29:49.000Z,55
2022-08-30T04:30:59.000Z,55
2022-08-30T04:32:09.000Z,55
2022-08-30T04:33:19.000Z,55
2022-08-30T04:34:29.000Z,55
2022-08-30T04:35:39.000Z,55
2022-08-30T04:36:49.000Z,55
2022-08-30T04:38:00.000Z,55
2022-08-30T04:39:10.000Z,55
2022-08-30T04:40:20.000Z,55
2022-08-30T04:41:30.000Z,55
2022-08-30T04:42:40.000Z,55
2022-08-30T04:43:49.000Z,55
2022-08-30T04:44:59.000Z,55
2022-08-30T04:46:09.000Z,55
2022-08-30T04:47:20.000Z,54.9
2022-08-30T04:48:30.000Z,55
2022-08-30T04:49:40.000Z,54.9
2022-08-30T04:50:49.000Z,54.9
2022-08-30T04:51:58.000Z,54.9
2022-08-30T04:53:08.000Z,54.9
2022-08-30T04:54:17.000Z,54.9
2022-08-30T04:55:26.000Z,54.9
2022-08-30T04:56:37.000Z,54.9
2022-08-30T04:57:47.000Z,54.9
2022-08-30T04:58:57.000Z,54.9
2022-08-30T05:00:07.000Z,54.9
2022-08-30T05:01:17.000Z,54.9
2022-08-30T05:02:27.000Z,54.9
2022-08-30T05:03:37.000Z,54.8
2022-08-30T05:04:47.000Z,54.8
2022-08-30T05:05:57.000Z,54.8
2022-08-30T05:07:08.000Z,54.7
2022-08-30T05:08:18.000Z,54.7
2022-08-30T05:09:28.000Z,54.6
2022-08-30T05:10:37.000Z,54.6
2022-08-30T05:11:47.000Z,54.6
2022-08-30T05:12:57.000Z,54.5
2022-08-30T05:14:07.000Z,54.5
2022-08-30T05:15:17.000Z,54.4
2022-08-30T05:16:28.000Z,54.4
2022-08-30T05:17:38.000Z,54.3
2022-08-30T05:18:47.000Z,54.3
2022-08-30T05:21:06.000Z,54.2
2022-08-30T05:22:16.000Z,54.1
2022-08-30T05:23:26.000Z,54.1
2022-08-30T05:24:36.000Z,54
2022-08-30T05:25:46.000Z,54
2022-08-30T05:26:57.000Z,54
2022-08-30T05:28:07.000Z,53.9
2022-08-30T05:29:17.000Z,53.9
2022-08-30T05:30:27.000Z,53.8
2022-08-30T05:31:37.000Z,53.8
2022-08-30T05:32:47.000Z,53.8
2022-08-30T05:33:57.000Z,53.7
2022-08-30T05:35:06.000Z,53.7
2022-08-30T05:36:17.000Z,53.7
2022-08-30T05:37:27.000Z,53.6
2022-08-30T05:38:37.000Z,53.6
2022-08-30T05:39:47.000Z,53.6
2022-08-30T05:40:57.000Z,53.5
2022-08-30T05:42:07.000Z,53.5
2022-08-30T05:43:17.000Z,53.5
2022-08-30T05:44:26.000Z,53.5
2022-08-30T05:46:46.000Z,53.4
2022-08-30T05:47:55.000Z,53.4
2022-08-30T05:49:04.000Z,53.4
2022-08-30T05:50:14.000Z,53.4
2022-08-30T05:51:23.000Z,53.4
2022-08-30T05:52:32.000Z,53.4
2022-08-30T05:53:42.000Z,53.4
2022-08-30T05:54:53.000Z,53.4
2022-08-30T05:56:03.000Z,53.4
2022-08-30T05:57:13.000Z,53.4
2022-08-30T05:58:23.000Z,53.4
2022-08-30T05:59:33.000Z,53.4
2022-08-30T06:00:43.000Z,53.4
2022-08-30T06:01:53.000Z,53.4
2022-08-30T06:03:03.000Z,53.4
2022-08-30T06:04:14.000Z,53.4
2022-08-30T06:05:24.000Z,53.4
2022-08-30T06:06:34.000Z,53.4
2022-08-30T06:07:43.000Z,53.4
2022-08-30T06:08:53.000Z,53.4
2022-08-30T06:10:03.000Z,53.4
2022-08-30T06:11:13.000Z,53.4
2022-08-30T06:12:23.000Z,53.4
2022-08-30T06:13:33.000Z,53.4
2022-08-30T06:14:44.000Z,53.4
2022-08-30T06:15:53.000Z,53.4
2022-08-30T06:17:02.000Z,53.4
2022-08-30T06:18:11.000Z,53.4
2022-08-30T06:19:20.000Z,53.5
2022-08-30T06:20:30.000Z,53.5
2022-08-30T06:21:40.000Z,53.5
2022-08-30T06:22:50.000Z,53.5
2022-08-30T06:24:01.000Z,53.5
2022-08-30T06:25:11.000Z,53.5
2022-08-30T06:26:21.000Z,53.5
2022-08-30T06:27:31.000Z,53.5
2022-08-30T06:28:41.000Z,53.5
2022-08-30T06:29:51.000Z,53.5
2022-08-30T06:31:01.000Z,53.5
2022-08-30T06:32:11.000Z,53.5
2022-08-30T06:33:22.000Z,53.5
2022-08-30T06:34:31.000Z,53.5
2022-08-30T06:35:41.000Z,53.5
2022-08-30T06:36:51.000Z,53.5
2022-08-30T06:38:01.000Z,53.5
2022-08-30T06:39:11.000Z,53.5
2022-08-30T06:40:21.000Z,53.5
2022-08-30T06:41:31.000Z,53.5
2022-08-30T06:42:40.000Z,53.5
2022-08-30T06:43:50.000Z,53.5
2022-08-30T06:45:00.000Z,53.6
2022-08-30T06:46:10.000Z,53.6
2022-08-30T06:47:20.000Z,53.6
2022-08-30T06:48:30.000Z,53.6
2022-08-30T06:49:40.000Z,53.6
2022-08-30T06:50:50.000Z,53.6
2022-08-30T06:52:00.000Z,53.6
2022-08-30T06:53:11.000Z,53.6
2022-08-30T06:54:21.000Z,53.6
2022-08-30T06:55:31.000Z,53.6
2022-08-30T06:56:41.000Z,53.6
2022-08-30T06:57:51.000Z,53.6
2022-08-30T06:59:00.000Z,53.6
2022-08-30T07:00:10.000Z,53.6
2022-08-30T07:01:20.000Z,53.5
2022-08-30T07:02:30.000Z,53.6
2022-08-30T07:03:41.000Z,53.6
2022-08-30T07:04:51.000Z,53.6
2022-08-30T07:06:01.000Z,53.5
2022-08-30T07:07:10.000Z,53.5
2022-08-30T07:08:19.000Z,53.5
2022-08-30T07:09:28.000Z,53.5
2022-08-30T07:10:37.000Z,53.5
2022-08-30T07:11:47.000Z,53.5
2022-08-30T07:12:58.000Z,53.5
2022-08-30T07:14:07.000Z,53.5
2022-08-30T07:15:16.000Z,53.5
2022-08-30T07:16:26.000Z,53.5
2022-08-30T07:17:36.000Z,53.5
2022-08-30T07:18:46.000Z,53.5
2022-08-30T07:19:56.000Z,53.5
2022-08-30T07:21:06.000Z,53.5
2022-08-30T07:22:17.000Z,53.5
2022-08-30T07:23:27.000Z,53.4
2022-08-30T07:24:37.000Z,53.4
2022-08-30T07:25:47.000Z,53.4
2022-08-30T07:26:57.000Z,53.4
2022-08-30T07:28:07.000Z,53.4
2022-08-30T07:29:17.000Z,53.4
2022-08-30T07:30:26.000Z,53.4
2022-08-30T07:31:37.000Z,53.4
2022-08-30T07:32:47.000Z,53.4
2022-08-30T07:33:57.000Z,53.4
2022-08-30T07:35:07.000Z,53.3
2022-08-30T07:36:17.000Z,53.3
2022-08-30T07:37:27.000Z,53.3
2022-08-30T07:38:36.000Z,53.3
2022-08-30T07:39:45.000Z,53.2
2022-08-30T07:40:55.000Z,53.3
2022-08-30T07:42:05.000Z,53.3
2022-08-30T07:43:14.000Z,53.2
2022-08-30T07:44:24.000Z,53.2
2022-08-30T07:45:34.000Z,53.2
2022-08-30T07:46:44.000Z,53.2
2022-08-30T07:47:54.000Z,53.2
2022-08-30T07:49:04.000Z,53.2
2022-08-30T07:50:14.000Z,53.2
2022-08-30T07:51:25.000Z,53.1
2022-08-30T07:52:35.000Z,53.1
2022-08-30T07:53:45.000Z,53.1
2022-08-30T07:56:05.000Z,53
2022-08-30T07:57:15.000Z,53
2022-08-30T07:58:24.000Z,53.1
2022-08-30T07:59:34.000Z,53
2022-08-30T08:00:45.000Z,52.9
2022-08-30T08:01:55.000Z,52.8
2022-08-30T08:03:05.000Z,52.8
2022-08-30T08:04:15.000Z,52.8
2022-08-30T08:05:25.000Z,52.8
2022-08-30T08:06:35.000Z,52.7
2022-08-30T08:07:44.000Z,52.6
2022-08-30T08:08:53.000Z,52.6
2022-08-30T08:10:03.000Z,52.6
2022-08-30T08:11:13.000Z,52.6
2022-08-30T08:13:32.000Z,52.5
2022-08-30T08:14:42.000Z,52.4
2022-08-30T08:15:52.000Z,52.4
2022-08-30T08:17:02.000Z,52.4
2022-08-30T08:18:12.000Z,52.3
2022-08-30T08:20:33.000Z,52.2
2022-08-30T08:21:43.000Z,52.1
2022-08-30T08:22:53.000Z,52.1
2022-08-30T08:24:03.000Z,52
2022-08-30T08:25:13.000Z,52
2022-08-30T08:26:23.000Z,51.9
2022-08-30T08:27:32.000Z,51.8
2022-08-30T08:28:42.000Z,51.7
2022-08-30T08:29:53.000Z,51.7
2022-08-30T08:31:03.000Z,51.7
2022-08-30T08:32:13.000Z,51.7
2022-08-30T08:33:23.000Z,51.6
2022-08-30T08:34:33.000Z,51.6
2022-08-30T08:35:43.000Z,51.6
2022-08-30T08:36:53.000Z,51.5
2022-08-30T08:38:02.000Z,51.5
2022-08-30T08:39:11.000Z,51.5
2022-08-30T08:40:21.000Z,51.5
2022-08-30T08:41:30.000Z,51.4
2022-08-30T08:42:40.000Z,51.3
2022-08-30T08:43:50.000Z,51.3
2022-08-30T08:44:59.000Z,51.2
2022-08-30T08:46:09.000Z,51.1
2022-08-30T08:47:19.000Z,51
2022-08-30T08:48:29.000Z,51
2022-08-30T08:49:40.000Z,50.8
2022-08-30T08:50:50.000Z,50.8
2022-08-30T08:52:00.000Z,50.7
2022-08-30T08:53:10.000Z,50.7
2022-08-30T08:54:20.000Z,50.6
2022-08-30T08:55:30.000Z,50.6
2022-08-30T08:56:40.000Z,50.5
2022-08-30T08:57:50.000Z,50.5
2022-08-30T08:59:01.000Z,50.8
2022-08-30T09:00:10.000Z,53.1
2022-08-30T09:02:30.000Z,51.2
2022-08-30T09:03:40.000Z,52.3
2022-08-30T09:04:50.000Z,52.3
2022-08-30T09:05:59.000Z,51.5
2022-08-30T09:07:08.000Z,51.5
2022-08-30T09:08:19.000Z,51.1
2022-08-30T09:09:29.000Z,50.9
2022-08-30T09:10:38.000Z,50.8
2022-08-30T09:11:48.000Z,50.7
2022-08-30T09:12:57.000Z,50.5
2022-08-30T09:14:07.000Z,50.5
2022-08-30T09:15:17.000Z,50.4
2022-08-30T09:16:27.000Z,50.4
2022-08-30T09:17:37.000Z,50.2
2022-08-30T09:18:48.000Z,50.1
2022-08-30T09:19:58.000Z,50.1
2022-08-30T09:21:08.000Z,50
2022-08-30T09:22:18.000Z,50
2022-08-30T09:23:28.000Z,50
2022-08-30T09:24:38.000Z,49.8
2022-08-30T09:25:48.000Z,49.8
2022-08-30T09:26:58.000Z,49.8
2022-08-30T09:28:08.000Z,49.8
2022-08-30T09:29:18.000Z,49.8
2022-08-30T09:30:28.000Z,49.7
2022-08-30T09:31:38.000Z,49.6
2022-08-30T09:32:48.000Z,49.6
2022-08-30T09:33:58.000Z,49.5
2022-08-30T09:35:07.000Z,49.5
2022-08-30T09:36:16.000Z,49.5
2022-08-30T09:37:26.000Z,49.5
2022-08-30T09:38:35.000Z,49.5
2022-08-30T09:39:45.000Z,49.5
2022-08-30T09:40:55.000Z,49.4
2022-08-30T09:42:05.000Z,49.4
2022-08-30T09:43:15.000Z,49.4
2022-08-30T09:44:25.000Z,49.2
2022-08-30T09:45:35.000Z,49.2
2022-08-30T09:46:45.000Z,49.2
2022-08-30T09:47:56.000Z,49.1
2022-08-30T09:49:06.000Z,49
2022-08-30T09:50:16.000Z,49
2022-08-30T09:51:26.000Z,49
2022-08-30T09:52:36.000Z,48.8
2022-08-30T09:53:45.000Z,48.8
2022-08-30T09:54:55.000Z,48.8
2022-08-30T09:56:05.000Z,48.8
2022-08-30T09:57:16.000Z,48.8
2022-08-30T09:58:26.000Z,48.8
2022-08-30T09:59:36.000Z,48.8
2022-08-30T10:00:46.000Z,48.8
2022-08-30T10:01:55.000Z,48.8
2022-08-30T10:03:04.000Z,48.8
2022-08-30T10:04:13.000Z,48.8
2022-08-30T10:05:22.000Z,48.6
2022-08-30T10:07:43.000Z,48.6
2022-08-30T10:08:53.000Z,48.6
2022-08-30T10:10:03.000Z,48.6
2022-08-30T10:12:23.000Z,48.5
2022-08-30T10:13:33.000Z,48.5
2022-08-30T10:14:43.000Z,48.4
2022-08-30T10:15:53.000Z,48.4
2022-08-30T10:17:04.000Z,48.4
2022-08-30T10:18:14.000Z,48.5
2022-08-30T10:19:23.000Z,48.3
2022-08-30T10:20:32.000Z,48.3
2022-08-30T10:21:42.000Z,48.2
2022-08-30T10:22:52.000Z,48.2
2022-08-30T10:24:02.000Z,48.2
2022-08-30T10:26:23.000Z,48.1
2022-08-30T10:27:33.000Z,48.1
2022-08-30T10:28:43.000Z,48
2022-08-30T10:29:53.000Z,47.9
2022-08-30T10:31:03.000Z,47.8
2022-08-30T10:32:13.000Z,47.7
2022-08-30T10:33:23.000Z,47.7
2022-08-30T10:34:34.000Z,47.7
2022-08-30T10:35:43.000Z,47.7
2022-08-30T10:36:53.000Z,47.7
2022-08-30T10:38:03.000Z,47.6
2022-08-30T10:39:13.000Z,47.5
2022-08-30T10:40:23.000Z,47.5
2022-08-30T10:41:33.000Z,47.5
2022-08-30T10:42:43.000Z,47.5
2022-08-30T10:43:54.000Z,47.5
2022-08-30T10:45:03.000Z,47.4
2022-08-30T10:47:22.000Z,47.3
2022-08-30T10:49:42.000Z,47.2
2022-08-30T10:50:52.000Z,47.2
2022-08-30T10:52:02.000Z,47.2
2022-08-30T10:53:13.000Z,47.2
2022-08-30T10:54:23.000Z,48.1
2022-08-30T10:55:33.000Z,47.4
2022-08-30T10:56:43.000Z,47.3
2022-08-30T10:57:53.000Z,47.5
2022-08-30T10:59:03.000Z,47.6
2022-08-30T11:00:13.000Z,47.7
2022-08-30T11:01:22.000Z,47.4
2022-08-30T11:02:33.000Z,47.4
2022-08-30T11:03:43.000Z,49.1
2022-08-30T11:04:53.000Z,47.3
2022-08-30T11:06:03.000Z,47.4
2022-08-30T11:07:13.000Z,47.6
2022-08-30T11:08:23.000Z,47.1
2022-08-30T11:09:33.000Z,47.4
2022-08-30T11:10:43.000Z,46.9
2022-08-30T11:11:52.000Z,47.6
2022-08-30T11:13:02.000Z,46.8
2022-08-30T11:14:11.000Z,46.7
2022-08-30T11:15:20.000Z,47.2
2022-08-30T11:16:30.000Z,46.6
2022-08-30T11:17:40.000Z,47.5
2022-08-30T11:18:50.000Z,46.6
2022-08-30T11:20:00.000Z,46.6
2022-08-30T11:21:10.000Z,46.6
2022-08-30T11:22:21.000Z,46.4
2022-08-30T11:23:31.000Z,46.3
2022-08-30T11:24:41.000Z,46.3
2022-08-30T11:25:51.000Z,46.3
2022-08-30T11:27:01.000Z,46.3
2022-08-30T11:28:11.000Z,46.4
2022-08-30T11:29:21.000Z,46.5
2022-08-30T11:30:30.000Z,46.4
2022-08-30T11:31:41.000Z,46.4
2022-08-30T11:32:51.000Z,46.5
2022-08-30T11:34:01.000Z,46.4
2022-08-30T11:35:11.000Z,46.3
2022-08-30T11:36:21.000Z,46.3
2022-08-30T11:37:31.614Z,46.3
2022-08-30T11:38:40.000Z,46.2
2022-08-30T11:39:49.000Z,46.2
2022-08-30T11:41:00.000Z,46.2
2022-08-30T11:42:10.000Z,46.2
2022-08-30T11:43:20.000Z,46.2
2022-08-30T11:44:30.000Z,46.2
2022-08-30T11:45:40.000Z,46.2
2022-08-30T11:46:50.000Z,47.3
2022-08-30T11:48:00.000Z,47.4
2022-08-30T11:49:10.000Z,46.5
2022-08-30T11:50:20.000Z,46.8
2022-08-30T11:51:31.000Z,46.2
2022-08-30T11:52:41.000Z,47.1
2022-08-30T11:53:51.000Z,46.3
2022-08-30T11:55:00.000Z,46.2
2022-08-30T11:56:10.000Z,46
2022-08-30T11:57:20.000Z,45.8
2022-08-30T11:58:30.000Z,45.8
2022-08-30T11:59:40.000Z,46.4
2022-08-30T12:00:50.000Z,45.8
2022-08-30T12:02:01.000Z,45.8
2022-08-30T12:03:10.000Z,46
2022-08-30T12:04:19.000Z,45.5
2022-08-30T12:05:28.000Z,47.5
2022-08-30T12:07:47.000Z,46
2022-08-30T12:08:56.000Z,45.6
2022-08-30T12:10:06.000Z,46.5
2022-08-30T12:11:16.000Z,45.8
2022-08-30T12:12:26.000Z,46
2022-08-30T12:13:36.000Z,47.4
2022-08-30T12:14:46.000Z,46
2022-08-30T12:15:56.000Z,45.5
2022-08-30T12:17:06.000Z,46
2022-08-30T12:18:16.000Z,45.4
2022-08-30T12:19:26.000Z,45.8
2022-08-30T12:20:37.000Z,45.4
2022-08-30T12:21:47.000Z,47.3
2022-08-30T12:22:57.000Z,46.5
2022-08-30T12:24:07.000Z,45.5
2022-08-30T12:25:16.000Z,45.7
2022-08-30T12:26:26.000Z,45.1
2022-08-30T12:27:36.000Z,46.3
2022-08-30T12:28:46.000Z,46.8
2022-08-30T12:29:57.000Z,45.4
2022-08-30T12:31:07.000Z,45.8
2022-08-30T12:32:17.000Z,45
2022-08-30T12:33:27.000Z,46.2
2022-08-30T12:34:37.000Z,44.7
2022-08-30T12:35:47.000Z,45.9
2022-08-30T12:36:57.000Z,45
2022-08-30T12:38:07.000Z,44.5
2022-08-30T12:39:16.000Z,44.5
2022-08-30T12:40:27.000Z,44.7
2022-08-30T12:41:37.000Z,45.1
2022-08-30T12:42:47.000Z,45.5
2022-08-30T12:43:56.000Z,45.4
2022-08-30T12:45:05.000Z,45.4
2022-08-30T12:46:15.000Z,44.3
2022-08-30T12:47:24.000Z,44.3
2022-08-30T12:48:34.000Z,44.2
2022-08-30T12:49:44.000Z,44.2
2022-08-30T12:50:54.000Z,45.5
2022-08-30T12:52:04.000Z,45.2
2022-08-30T12:53:14.000Z,44.5
2022-08-30T12:54:24.000Z,44.2
2022-08-30T12:55:34.000Z,44.3
2022-08-30T12:56:44.000Z,44
2022-08-30T12:57:54.000Z,44
2022-08-30T12:59:05.000Z,43.8
2022-08-30T13:00:15.000Z,43.7
2022-08-30T13:01:25.000Z,43.7
2022-08-30T13:02:35.000Z,43.8
2022-08-30T13:03:44.000Z,43.6
2022-08-30T13:04:54.000Z,43.6
2022-08-30T13:06:04.000Z,43.5
2022-08-30T13:07:14.000Z,44.5
2022-08-30T13:08:24.000Z,43.4
2022-08-30T13:09:35.000Z,43.4
2022-08-30T13:10:45.000Z,43.5
2022-08-30T13:11:54.000Z,43.4
2022-08-30T13:13:03.000Z,43.6
2022-08-30T13:14:12.000Z,43.2
2022-08-30T13:15:21.000Z,43.1
2022-08-30T13:16:31.000Z,43.1
2022-08-30T13:17:42.000Z,43.2
2022-08-30T13:18:52.000Z,43.1
2022-08-30T13:20:02.000Z,43.1
2022-08-30T13:21:12.000Z,43.1
2022-08-30T13:22:22.000Z,43.1
2022-08-30T13:23:32.000Z,43
2022-08-30T13:24:42.000Z,43
2022-08-30T13:25:52.000Z,43
2022-08-30T13:27:02.000Z,43
2022-08-30T13:28:13.000Z,43
2022-08-30T13:29:23.000Z,43
2022-08-30T13:30:32.000Z,43.2
2022-08-30T13:31:42.000Z,43.2
2022-08-30T13:32:52.000Z,43.1
2022-08-30T13:34:02.000Z,43.1
2022-08-30T13:35:12.000Z,43.1
2022-08-30T13:36:22.000Z,43
2022-08-30T13:37:32.000Z,43.1
2022-08-30T13:38:42.000Z,43.1
2022-08-30T13:39:51.000Z,43
2022-08-30T13:41:00.000Z,43
2022-08-30T13:42:09.000Z,43
2022-08-30T13:43:19.000Z,43
2022-08-30T13:44:29.000Z,43
2022-08-30T13:45:39.000Z,42.9
2022-08-30T13:46:50.000Z,42.9
2022-08-30T13:48:00.000Z,42.9
2022-08-30T13:49:10.000Z,42.9
2022-08-30T13:50:20.000Z,42.9
2022-08-30T13:51:30.000Z,42.9
2022-08-30T13:52:40.000Z,43
2022-08-30T13:53:50.000Z,43.1
2022-08-30T13:55:00.000Z,43.2
2022-08-30T13:56:10.000Z,43.2
2022-08-30T13:57:21.000Z,43.1
2022-08-30T13:58:30.000Z,43
2022-08-30T13:59:40.000Z,43.1
2022-08-30T14:00:50.000Z,43.1
2022-08-30T14:02:00.000Z,43
2022-08-30T14:03:10.000Z,42.9
2022-08-30T14:04:20.000Z,42.9
2022-08-30T14:05:29.000Z,42.9
2022-08-30T14:06:39.000Z,42.8
2022-08-30T14:07:48.000Z,42.7
2022-08-30T14:08:57.000Z,42.7
2022-08-30T14:10:07.000Z,42.6
2022-08-30T14:11:17.000Z,42.6
2022-08-30T14:12:27.000Z,42.6
2022-08-30T14:13:37.000Z,42.6
2022-08-30T14:14:47.000Z,42.6
2022-08-30T14:15:58.000Z,42.6
2022-08-30T14:17:08.000Z,42.5
2022-08-30T14:18:18.000Z,42.5
2022-08-30T14:19:28.000Z,42.5
2022-08-30T14:20:38.000Z,42.5
2022-08-30T14:21:48.000Z,42.5
2022-08-30T14:22:58.000Z,42.5
2022-08-30T14:24:07.000Z,42.5
2022-08-30T14:25:17.000Z,42.5
2022-08-30T14:26:28.000Z,42.6
2022-08-30T14:27:38.000Z,42.6
2022-08-30T14:28:48.000Z,42.7
2022-08-30T14:29:58.000Z,42.7
2022-08-30T14:31:08.000Z,42.6
2022-08-30T14:32:17.000Z,42.6
2022-08-30T14:33:26.000Z,42.6
2022-08-30T14:34:36.000Z,42.5
2022-08-30T14:35:46.000Z,42.5
2022-08-30T14:36:55.000Z,42.5
2022-08-30T14:38:05.000Z,42.5
2022-08-30T14:39:15.000Z,42.5
2022-08-30T14:40:25.000Z,42.4
2022-08-30T14:41:35.000Z,42.4
2022-08-30T14:42:45.000Z,42.3
2022-08-30T14:45:06.000Z,42.4
2022-08-30T14:46:16.000Z,42.4
2022-08-30T14:47:26.000Z,42.4
2022-08-30T14:48:36.000Z,42.4
2022-08-30T14:49:46.000Z,42.5
2022-08-30T14:50:56.000Z,42.5
2022-08-30T14:52:05.000Z,42.5
2022-08-30T14:53:15.000Z,42.5
2022-08-30T14:54:25.000Z,42.5
2022-08-30T14:55:36.000Z,42.4
2022-08-30T14:56:46.000Z,42.4
2022-08-30T14:57:56.000Z,42.4
2022-08-30T14:59:06.000Z,42.3
2022-08-30T15:00:16.000Z,42.3
2022-08-30T15:01:25.000Z,42.3
2022-08-30T15:02:34.000Z,42.3
2022-08-30T15:03:43.000Z,42.3
2022-08-30T15:04:53.000Z,42.3
2022-08-30T15:06:03.000Z,42.3
2022-08-30T15:07:13.000Z,42.2
2022-08-30T15:08:23.000Z,42.2
2022-08-30T15:09:33.000Z,42.2
2022-08-30T15:10:43.000Z,42.2
2022-08-30T15:11:53.000Z,42.2
2022-08-30T15:13:03.000Z,42.2
2022-08-30T15:14:14.000Z,42.2
2022-08-30T15:15:24.000Z,42.2
2022-08-30T15:16:34.000Z,42.2
2022-08-30T15:17:44.000Z,42.2
2022-08-30T15:18:54.000Z,42.2
2022-08-30T15:20:03.000Z,42.2
2022-08-30T15:21:13.000Z,42.2
2022-08-30T15:22:23.000Z,42.2
2022-08-30T15:23:33.000Z,42.1
2022-08-30T15:24:44.000Z,42.2
2022-08-30T15:25:54.000Z,42.2
2022-08-30T15:27:04.000Z,42.2
2022-08-30T15:28:13.000Z,42.2
2022-08-30T15:29:22.000Z,42.2
2022-08-30T15:30:31.000Z,42.3
2022-08-30T15:31:40.000Z,42.3
2022-08-30T15:32:50.000Z,42.4
2022-08-30T15:34:01.000Z,42.4
2022-08-30T15:35:11.000Z,42.4
2022-08-30T15:36:21.000Z,42.2
2022-08-30T15:37:31.000Z,42.2
2022-08-30T15:38:41.000Z,42.2
2022-08-30T15:39:51.000Z,42.2
2022-08-30T15:41:01.000Z,42.2
2022-08-30T15:42:11.000Z,42.2
2022-08-30T15:43:22.000Z,42.2
2022-08-30T15:44:32.000Z,42.2
2022-08-30T15:45:42.000Z,42.2
2022-08-30T15:46:51.000Z,42.2
2022-08-30T15:48:01.000Z,42.2
2022-08-30T15:49:11.000Z,42.2
2022-08-30T15:50:21.000Z,42.2
2022-08-30T15:51:31.000Z,42.2
2022-08-30T15:52:41.000Z,42.2
2022-08-30T15:53:52.000Z,42.2
2022-08-30T15:55:01.000Z,42.2
2022-08-30T15:56:10.000Z,42.4
2022-08-30T15:57:20.000Z,42.4